createdAt,value
2022-12-07T00:02:08.277Z,8.53
2022-12-07T00:04:35.327Z,8.73
2022-12-07T00:07:02.654Z,8.43
2022-12-07T00:09:29.277Z,8.47
2022-12-07T00:11:55.916Z,8.53
2022-12-07T00:14:22.576Z,8.53
2022-12-07T00:16:52.747Z,8.20
2022-12-07T00:19:19.582Z,7.87
2022-12-07T00:21:46.238Z,8.13
2022-12-07T00:24:14.115Z,8.30
2022-12-07T00:26:42.320Z,7.90
2022-12-07T00:29:18.271Z,8.00
2022-12-07T00:31:45.383Z,8.07
2022-12-07T00:34:18.916Z,9.13
2022-12-07T00:36:48.553Z,9.07
2022-12-07T00:39:16.357Z,9.00
2022-12-07T00:41:44.018Z,9.43
2022-12-07T00:44:11.251Z,8.57
2022-12-07T00:46:38.641Z,8.73
2022-12-07T00:49:05.747Z,9.63
2022-12-07T00:51:34.239Z,9.10
2022-12-07T00:54:01.258Z,8.70
2022-12-07T00:56:29.585Z,9.30
2022-12-07T00:59:04.611Z,9.37
2022-12-07T01:01:35.153Z,8.67
2022-12-07T01:04:04.124Z,9.27
2022-12-07T01:06:31.397Z,8.97
2022-12-07T01:08:59.072Z,8.33
2022-12-07T01:11:29.567Z,8.33
2022-12-07T01:13:58.714Z,8.80
2022-12-07T01:16:27.413Z,7.33
2022-12-07T01:18:55.788Z,7.97
2022-12-07T01:21:26.860Z,7.13
2022-12-07T01:23:53.708Z,7.47
2022-12-07T01:26:22.700Z,8.00
2022-12-07T01:28:49.998Z,7.37
2022-12-07T01:31:19.078Z,6.80
2022-12-07T01:33:48.292Z,6.90
2022-12-07T01:36:24.707Z,5.60
2022-12-07T01:38:54.563Z,6.03
2022-12-07T01:41:23.062Z,4.97
2022-12-07T01:44:19.798Z,3.87
2022-12-07T01:46:51.195Z,4.73
2022-12-07T01:49:27.080Z,4.80
2022-12-07T01:51:58.831Z,4.43
2022-12-07T01:54:25.950Z,4.57
2022-12-07T01:56:54.991Z,5.03
2022-12-07T01:59:25.714Z,4.57
2022-12-07T02:01:53.457Z,5.10
2022-12-07T02:04:20.517Z,4.77
2022-12-07T02:06:48.009Z,4.80
2022-12-07T02:09:14.778Z,5.10
2022-12-07T02:11:42.008Z,5.07
2022-12-07T02:14:08.724Z,5.07
2022-12-07T02:16:38.205Z,4.73
2022-12-07T02:19:35.554Z,4.80
2022-12-07T02:22:24.260Z,4.73
2022-12-07T02:24:56.639Z,4.77
2022-12-07T02:27:34.281Z,4.67
2022-12-07T02:30:05.782Z,5.10
2022-12-07T02:32:43.605Z,4.67
2022-12-07T02:35:32.101Z,4.90
2022-12-07T02:38:20.510Z,4.63
2022-12-07T02:40:50.291Z,4.83
2022-12-07T02:43:24.547Z,5.00
2022-12-07T02:45:53.555Z,4.63
2022-12-07T02:48:21.156Z,4.90
2022-12-07T02:50:52.648Z,4.70
2022-12-07T02:53:35.689Z,5.00
2022-12-07T02:56:12.237Z,4.73
2022-12-07T02:58:44.919Z,5.10
2022-12-07T03:01:37.442Z,5.23
2022-12-07T03:04:21.267Z,4.73
2022-12-07T03:06:55.098Z,4.90
2022-12-07T03:15:20.193Z,4.83
2022-12-07T03:17:47.400Z,4.60
2022-12-07T03:20:17.291Z,4.70
2022-12-07T03:22:45.122Z,4.97
2022-12-07T03:25:15.183Z,4.43
2022-12-07T03:27:47.871Z,4.23
2022-12-07T03:30:19.915Z,4.63
2022-12-07T03:36:09.605Z,3.90
2022-12-07T03:38:43.604Z,4.27
2022-12-07T03:41:27.172Z,4.30
2022-12-07T03:43:57.265Z,4.27
2022-12-07T03:47:02.147Z,3.87
2022-12-07T03:49:33.706Z,3.90
2022-12-07T03:52:20.601Z,4.27
2022-12-07T03:54:57.407Z,3.50
2022-12-07T03:57:25.389Z,3.63
2022-12-07T03:59:53.039Z,3.73
2022-12-07T04:02:19.722Z,3.63
2022-12-07T04:04:46.651Z,4.07
2022-12-07T04:07:14.130Z,3.70
2022-12-07T04:09:40.861Z,4.00
2022-12-07T04:12:08.105Z,4.17
2022-12-07T04:14:34.817Z,4.30
2022-12-07T04:17:01.471Z,4.70
2022-12-07T04:19:33.661Z,4.43
2022-12-07T04:22:02.527Z,4.50
2022-12-07T04:24:29.521Z,4.33
2022-12-07T04:26:56.550Z,4.70
2022-12-07T04:29:23.747Z,4.77
2022-12-07T04:31:50.612Z,4.53
2022-12-07T04:34:18.607Z,4.73
2022-12-07T04:36:46.252Z,5.00
2022-12-07T04:39:29.085Z,4.83
2022-12-07T04:41:56.572Z,4.97
2022-12-07T04:44:25.440Z,5.17
2022-12-07T04:46:52.959Z,5.27
2022-12-07T04:49:20.549Z,5.20
2022-12-07T04:51:47.625Z,5.60
2022-12-07T04:54:15.403Z,5.57
2022-12-07T04:56:42.727Z,5.20
2022-12-07T04:59:11.247Z,5.80
2022-12-07T05:01:37.995Z,5.43
2022-12-07T05:04:05.043Z,5.47
2022-12-07T05:06:32.171Z,5.67
2022-12-07T05:08:59.092Z,5.50
2022-12-07T05:11:41.543Z,5.60
2022-12-07T05:14:16.657Z,5.70
2022-12-07T05:16:44.695Z,6.13
2022-12-07T05:19:12.155Z,5.63
2022-12-07T05:21:39.547Z,6.10
2022-12-07T05:24:07.119Z,6.30
2022-12-07T05:26:34.031Z,5.47
2022-12-07T05:29:01.787Z,5.70
2022-12-07T05:31:28.955Z,5.77
2022-12-07T05:33:55.878Z,6.33
2022-12-07T05:36:23.463Z,6.00
2022-12-07T05:38:50.336Z,6.00
2022-12-07T05:41:41.763Z,5.97
2022-12-07T05:44:08.871Z,6.20
2022-12-07T05:46:36.542Z,6.27
2022-12-07T05:49:03.693Z,5.80
2022-12-07T05:51:30.492Z,5.50
2022-12-07T05:53:57.453Z,6.10
2022-12-07T05:56:24.356Z,5.83
2022-12-07T05:59:09.780Z,6.17
2022-12-07T06:01:37.785Z,6.07
2022-12-07T06:04:05.253Z,5.73
2022-12-07T06:06:32.774Z,6.33
2022-12-07T06:09:00.120Z,6.07
2022-12-07T06:11:45.539Z,5.90
2022-12-07T06:14:12.975Z,5.90
2022-12-07T06:16:39.960Z,6.10
2022-12-07T06:19:07.072Z,5.50
2022-12-07T06:21:34.126Z,6.40
2022-12-07T06:24:01.213Z,6.20
2022-12-07T06:26:28.925Z,6.20
2022-12-07T06:28:55.948Z,5.87
2022-12-07T06:31:23.219Z,6.40
2022-12-07T06:33:50.254Z,6.00
2022-12-07T06:36:18.144Z,6.70
2022-12-07T06:38:47.464Z,5.77
2022-12-07T06:41:15.858Z,5.47
2022-12-07T06:43:43.385Z,5.50
2022-12-07T06:46:12.821Z,5.73
2022-12-07T10:34:26.287Z,2.00
2022-12-07T10:36:54.481Z,1.80
2022-12-07T10:39:24.188Z,2.10
2022-12-07T20:01:27.376Z,2.83
2022-12-07T20:03:55.343Z,2.70
2022-12-07T20:06:23.462Z,2.93
2022-12-07T20:08:50.925Z,3.17
2022-12-07T20:11:38.185Z,3.30
2022-12-07T20:14:10.075Z,3.43
2022-12-07T20:16:37.714Z,2.67
2022-12-07T20:19:05.099Z,3.13
2022-12-07T20:21:32.360Z,2.83
2022-12-07T20:24:03.495Z,3.47
2022-12-07T20:26:30.933Z,2.70
2022-12-07T20:28:59.243Z,3.10
2022-12-07T20:31:28.798Z,3.10
2022-12-07T20:33:56.477Z,2.87
2022-12-07T20:36:23.501Z,3.10
2022-12-07T20:38:53.345Z,3.57
2022-12-07T20:41:39.809Z,3.30
2022-12-07T20:44:07.036Z,3.73
2022-12-07T20:46:34.096Z,3.47
2022-12-07T20:49:01.946Z,4.20
2022-12-07T20:51:29.205Z,4.10
2022-12-07T20:53:56.929Z,4.40
2022-12-07T20:56:27.819Z,4.27
2022-12-07T20:58:55.766Z,4.47
2022-12-07T21:01:22.955Z,4.73
2022-12-07T21:03:50.184Z,4.43
2022-12-07T21:06:20.740Z,4.60
2022-12-07T21:08:49.899Z,4.20
2022-12-07T21:11:18.379Z,4.60
2022-12-07T21:13:45.266Z,4.77
2022-12-07T21:16:14.472Z,4.50
2022-12-07T21:18:41.446Z,4.37
2022-12-07T21:21:09.198Z,4.60
2022-12-07T21:23:36.653Z,4.37
2022-12-07T21:26:11.151Z,4.17
2022-12-07T21:28:38.236Z,4.30
2022-12-07T21:31:12.940Z,4.20
2022-12-07T21:33:40.835Z,4.10
2022-12-07T21:36:09.926Z,4.43
